createdAt,value
2022-09-15T00:00:56.335Z,100.00
2022-09-15T00:03:58.567Z,100.00
2022-09-15T00:07:00.526Z,100.00
2022-09-15T00:10:03.455Z,100.00
2022-09-15T00:13:05.211Z,100.00
2022-09-15T00:16:08.266Z,100.00
2022-09-15T00:19:10.015Z,100.00
2022-09-15T00:22:11.769Z,100.00
2022-09-15T00:25:14.085Z,100.00
2022-09-15T00:28:17.454Z,100.00
2022-09-15T00:31:22.008Z,100.00
2022-09-15T00:34:23.793Z,100.00
2022-09-15T00:37:26.078Z,100.00
2022-09-15T00:40:27.791Z,100.00
2022-09-15T00:43:47.805Z,100.00
2022-09-15T00:47:15.357Z,100.00
2022-09-15T00:50:18.382Z,100.00
2022-09-15T00:53:21.209Z,100.00
2022-09-15T00:56:23.541Z,100.00
2022-09-15T00:59:30.027Z,100.00
2022-09-15T01:02:34.346Z,100.00
2022-09-15T01:05:42.717Z,100.00
2022-09-15T01:09:00.665Z,100.00
2022-09-15T01:12:04.044Z,100.00
2022-09-15T01:15:06.258Z,100.00
2022-09-15T01:18:22.410Z,100.00
2022-09-15T01:21:48.299Z,100.00
2022-09-15T01:24:50.224Z,100.00
2022-09-15T01:27:57.925Z,100.00
2022-09-15T01:31:08.329Z,99.20
2022-09-15T01:34:17.880Z,98.76
2022-09-15T01:37:24.854Z,98.30
2022-09-15T01:40:32.588Z,98.48
2022-09-15T01:43:39.738Z,98.16
2022-09-15T01:46:47.123Z,97.49
2022-09-15T01:49:59.390Z,96.83
2022-09-15T01:53:03.781Z,96.90
2022-09-15T01:56:12.605Z,96.77
2022-09-15T01:59:14.373Z,96.60
2022-09-15T02:02:35.729Z,96.47
2022-09-15T02:05:43.400Z,96.54
2022-09-15T02:08:52.890Z,96.50
2022-09-15T02:12:14.557Z,96.45
2022-09-15T02:15:25.241Z,96.02
2022-09-15T02:18:38.523Z,96.39
2022-09-15T02:22:04.528Z,95.99
2022-09-15T02:25:11.593Z,96.22
2022-09-15T02:28:15.243Z,96.09
2022-09-15T02:31:20.574Z,96.04
2022-09-15T02:34:30.210Z,95.94
2022-09-15T02:37:32.368Z,95.55
2022-09-15T02:40:34.094Z,95.17
2022-09-15T02:43:45.578Z,94.69
2022-09-15T02:46:47.262Z,94.91
2022-09-15T02:49:49.039Z,94.92
2022-09-15T02:52:50.624Z,95.26
2022-09-15T02:55:52.306Z,94.88
2022-09-15T02:58:53.948Z,95.03
2022-09-15T03:01:55.693Z,95.09
2022-09-15T03:04:57.308Z,94.88
2022-09-15T03:07:59.706Z,94.89
2022-09-15T03:11:01.281Z,95.14
2022-09-15T03:14:06.143Z,95.19
2022-09-15T03:17:07.748Z,95.04
2022-09-15T03:20:12.355Z,94.83
2022-09-15T03:23:14.210Z,95.26
2022-09-15T03:26:15.916Z,95.10
2022-09-15T03:29:17.569Z,94.91
2022-09-15T03:32:19.553Z,95.11
2022-09-15T03:35:21.161Z,94.98
2022-09-15T03:38:23.205Z,94.37
2022-09-15T03:41:25.762Z,94.63
2022-09-15T03:44:27.564Z,94.52
2022-09-15T03:47:29.177Z,94.22
2022-09-15T03:50:31.579Z,94.52
2022-09-15T03:53:34.503Z,94.17
2022-09-15T03:56:36.242Z,94.32
2022-09-15T03:59:37.860Z,94.66
2022-09-15T04:02:39.498Z,94.62
2022-09-15T04:05:42.166Z,94.91
2022-09-15T04:08:44.061Z,94.57
2022-09-15T04:11:45.940Z,94.39
2022-09-15T04:14:47.705Z,94.83
2022-09-15T04:17:49.688Z,94.64
2022-09-15T04:20:51.317Z,94.67
2022-09-15T04:23:54.162Z,94.28
2022-09-15T04:26:55.822Z,94.40
2022-09-15T04:29:57.593Z,93.97
2022-09-15T04:32:59.204Z,93.93
2022-09-15T04:36:06.145Z,93.80
2022-09-15T04:39:07.839Z,93.72
2022-09-15T04:42:09.499Z,93.56
2022-09-15T04:45:11.293Z,93.70
2022-09-15T04:48:15.297Z,93.34
2022-09-15T04:51:20.026Z,93.32
2022-09-15T04:54:21.882Z,93.42
2022-09-15T04:57:23.526Z,92.88
2022-09-15T05:00:26.538Z,92.27
2022-09-15T05:03:28.160Z,92.90
2022-09-15T05:06:29.812Z,92.61
2022-09-15T05:09:31.452Z,92.57
2022-09-15T05:12:33.332Z,92.21
2022-09-15T05:15:35.193Z,92.37
2022-09-15T05:18:36.798Z,92.03
2022-09-15T05:21:38.617Z,92.12
2022-09-15T05:24:40.256Z,92.29
2022-09-15T05:27:41.913Z,92.53
2022-09-15T05:30:44.594Z,92.83
2022-09-15T05:33:48.274Z,92.77
2022-09-15T05:36:49.884Z,92.54
2022-09-15T05:39:51.532Z,91.89
2022-09-15T05:42:53.138Z,91.81
2022-09-15T05:45:55.172Z,91.40
2022-09-15T05:48:58.267Z,91.29
2022-09-15T05:52:00.216Z,91.38
2022-09-15T05:55:01.825Z,90.59
2022-09-15T05:58:03.834Z,90.81
2022-09-15T06:01:26.824Z,91.01
2022-09-15T06:04:28.673Z,90.50
2022-09-15T06:07:30.331Z,90.24
2022-09-15T06:10:32.097Z,90.21
2022-09-15T06:13:34.514Z,90.08
2022-09-15T06:16:36.224Z,90.26
2022-09-15T06:19:37.879Z,89.97
2022-09-15T06:22:39.971Z,89.80
2022-09-15T06:25:41.610Z,89.34
2022-09-15T06:28:51.537Z,89.55
2022-09-15T06:31:53.267Z,89.52
2022-09-15T06:34:54.920Z,89.23
2022-09-15T06:37:56.540Z,88.83
2022-09-15T06:40:59.349Z,89.07
2022-09-15T06:44:01.129Z,89.58
2022-09-15T06:47:04.059Z,89.46
2022-09-15T06:50:06.006Z,89.36
2022-09-15T06:53:07.683Z,88.50
2022-09-15T06:56:14.676Z,88.44
2022-09-15T06:59:16.996Z,87.99
2022-09-15T07:02:18.679Z,88.41
2022-09-15T07:05:20.497Z,88.93
2022-09-15T07:08:22.251Z,88.89
2022-09-15T07:11:24.730Z,88.34
2022-09-15T07:14:26.410Z,88.40
2022-09-15T07:17:29.080Z,87.71
2022-09-15T07:20:30.688Z,87.90
2022-09-15T07:23:33.404Z,87.51
2022-09-15T07:26:35.194Z,88.02
2022-09-15T07:29:38.323Z,86.58
2022-09-15T07:32:41.115Z,87.62
2022-09-15T07:35:43.583Z,87.28
2022-09-15T07:38:48.024Z,87.13
2022-09-15T07:41:49.613Z,87.15
2022-09-15T07:44:51.585Z,87.53
2022-09-15T07:47:54.502Z,87.40
2022-09-15T07:50:56.361Z,87.48
2022-09-15T07:53:58.025Z,87.48
2022-09-15T07:56:59.657Z,87.38
2022-09-15T08:00:02.177Z,87.77
2022-09-15T08:03:14.316Z,88.26
2022-09-15T08:06:18.206Z,87.32
2022-09-15T08:09:19.997Z,87.04
2022-09-15T08:12:21.668Z,86.81
2022-09-15T08:15:23.380Z,85.18
2022-09-15T08:18:25.334Z,84.44
2022-09-15T08:21:28.280Z,84.81
2022-09-15T08:24:29.991Z,83.97
2022-09-15T08:27:32.026Z,83.91
2022-09-15T08:30:33.704Z,82.94
2022-09-15T08:33:35.865Z,83.15
2022-09-15T08:36:37.516Z,83.75
2022-09-15T08:39:39.094Z,83.89
2022-09-15T08:42:44.828Z,82.91
2022-09-15T08:45:55.705Z,82.75
2022-09-15T08:49:26.832Z,80.90
2022-09-15T08:52:52.554Z,79.40
2022-09-15T08:55:55.953Z,77.71
2022-09-15T08:58:57.677Z,76.56
2022-09-15T09:02:32.182Z,75.24
2022-09-15T09:05:56.968Z,75.66
2022-09-15T09:09:04.633Z,74.93
2022-09-15T09:12:20.869Z,75.30
2022-09-15T09:15:28.989Z,73.59
2022-09-15T09:18:50.669Z,73.10
2022-09-15T09:21:57.793Z,74.25
2022-09-15T09:25:11.647Z,72.58
2022-09-15T09:28:32.274Z,71.32
2022-09-15T09:31:35.664Z,70.95
2022-09-15T09:34:45.499Z,71.52
2022-09-15T09:37:47.644Z,71.65
2022-09-15T09:40:49.986Z,71.50
2022-09-15T09:43:55.100Z,70.30
2022-09-15T09:46:56.795Z,71.66
2022-09-15T09:49:59.847Z,72.14
2022-09-15T09:53:18.908Z,71.58
2022-09-15T09:56:25.766Z,70.42
2022-09-15T09:59:32.318Z,71.30
2022-09-15T10:02:46.882Z,70.04
2022-09-15T10:06:13.549Z,70.64
2022-09-15T10:09:19.576Z,70.99
2022-09-15T10:12:33.956Z,71.03
2022-09-15T10:15:36.736Z,71.40
2022-09-15T10:18:39.164Z,71.86
2022-09-15T10:21:40.777Z,71.83
2022-09-15T10:24:42.477Z,72.07
2022-09-15T10:27:44.138Z,71.32
2022-09-15T10:31:07.640Z,69.81
2022-09-15T10:34:30.561Z,70.01
2022-09-15T10:37:57.094Z,68.25
2022-09-15T10:41:23.668Z,68.49
2022-09-15T10:44:43.365Z,69.15
2022-09-15T10:47:53.936Z,70.15
2022-09-15T10:51:17.086Z,70.03
2022-09-15T10:54:40.580Z,70.64
2022-09-15T10:58:16.396Z,70.92
2022-09-15T11:01:30.009Z,71.46
2022-09-15T11:05:05.670Z,70.26
2022-09-15T11:08:39.239Z,71.17
2022-09-15T11:11:55.201Z,71.82
2022-09-15T11:15:35.702Z,71.88
2022-09-15T11:18:56.199Z,72.85
2022-09-15T11:22:09.120Z,71.05
2022-09-15T11:25:25.402Z,72.15
2022-09-15T11:28:36.070Z,72.71
2022-09-15T11:31:44.802Z,72.10
2022-09-15T11:35:26.504Z,71.54
2022-09-15T11:38:48.876Z,72.12
2022-09-15T11:41:56.507Z,71.32
2022-09-15T11:45:03.590Z,70.18
2022-09-15T11:48:15.629Z,70.47
2022-09-15T11:51:23.285Z,70.40
2022-09-15T11:54:38.601Z,70.69
2022-09-15T11:57:52.982Z,75.29
2022-09-15T12:01:01.653Z,78.92
2022-09-15T12:04:17.879Z,81.24
2022-09-15T12:07:29.038Z,82.35
2022-09-15T12:10:36.739Z,82.07
2022-09-15T12:13:41.216Z,83.19
2022-09-15T12:16:44.512Z,84.07
2022-09-15T12:19:55.700Z,84.82
2022-09-15T12:23:01.570Z,84.61
2022-09-15T12:26:22.110Z,84.58
2022-09-15T12:29:26.775Z,85.26
2022-09-15T12:32:30.198Z,87.16
2022-09-15T12:35:33.877Z,88.00
2022-09-15T12:38:35.884Z,88.97
2022-09-15T12:42:08.768Z,89.96
2022-09-15T12:45:27.324Z,90.49
2022-09-15T12:48:35.853Z,89.53
2022-09-15T12:51:37.622Z,88.33
2022-09-15T12:54:45.424Z,88.70
2022-09-15T12:57:53.893Z,87.08
2022-09-15T13:01:18.832Z,88.06
2022-09-15T13:04:43.652Z,87.64
2022-09-15T13:07:57.567Z,88.17
2022-09-15T13:11:08.209Z,86.88
2022-09-15T13:14:23.434Z,87.51
2022-09-15T13:17:27.184Z,85.54
2022-09-15T13:20:34.208Z,84.76
2022-09-15T13:23:43.752Z,83.63
2022-09-15T13:26:52.014Z,82.35
2022-09-15T13:30:07.400Z,80.40
2022-09-15T13:33:25.781Z,81.58
2022-09-15T13:40:41.186Z,83.60
2022-09-15T13:44:04.725Z,85.07
2022-09-15T13:47:23.376Z,87.38
2022-09-15T13:50:34.390Z,88.43
2022-09-15T13:54:02.469Z,89.75
2022-09-15T13:57:04.669Z,92.83
2022-09-15T14:00:11.686Z,94.14
2022-09-15T14:03:28.153Z,95.36
2022-09-15T14:06:37.046Z,96.88
2022-09-15T14:09:46.672Z,97.21
2022-09-15T14:12:49.052Z,96.39
2022-09-15T14:16:27.991Z,96.56
2022-09-15T14:19:39.376Z,96.61
2022-09-15T14:22:41.088Z,97.75
2022-09-15T14:25:46.210Z,96.32
2022-09-15T14:28:51.409Z,97.09
2022-09-15T14:31:54.137Z,96.69
2022-09-15T14:34:59.713Z,97.24
2022-09-15T14:38:01.789Z,96.51
2022-09-15T14:41:03.799Z,97.60
2022-09-15T14:47:46.893Z,98.93
2022-09-15T14:51:00.273Z,96.48
2022-09-15T14:54:03.501Z,95.63
2022-09-15T14:57:09.112Z,95.83
2022-09-15T15:00:19.139Z,96.32
2022-09-15T15:03:25.173Z,96.35
2022-09-15T15:06:54.881Z,97.04
2022-09-15T15:10:06.633Z,97.99
2022-09-15T15:13:15.175Z,98.41
2022-09-15T15:16:29.761Z,98.37
2022-09-15T15:19:38.706Z,99.07
2022-09-15T15:22:42.433Z,99.56
2022-09-15T15:25:44.356Z,99.41
2022-09-15T15:28:46.230Z,99.58
2022-09-15T15:31:48.015Z,99.99
2022-09-15T15:34:54.268Z,100.00
2022-09-15T15:38:27.070Z,100.00
2022-09-15T15:41:35.188Z,100.00
2022-09-15T15:44:36.851Z,100.00
2022-09-15T15:47:38.893Z,100.00
2022-09-15T15:50:40.753Z,99.83
2022-09-15T15:53:42.732Z,99.39
2022-09-15T15:56:44.573Z,99.25
2022-09-15T15:59:46.861Z,99.91
2022-09-15T16:02:49.465Z,99.32
2022-09-15T16:05:53.974Z,99.28
2022-09-15T16:08:58.237Z,98.73
2022-09-15T16:12:00.012Z,97.80
2022-09-15T16:15:04.612Z,97.19
2022-09-15T16:18:06.395Z,97.48
2022-09-15T16:21:16.918Z,96.61
2022-09-15T16:24:18.618Z,96.99
2022-09-15T16:27:20.253Z,97.31
2022-09-15T16:30:21.917Z,96.49
2022-09-15T16:33:25.001Z,96.37
2022-09-15T16:36:27.279Z,96.26
2022-09-15T16:39:29.635Z,96.03
2022-09-15T16:42:31.228Z,95.88
2022-09-15T16:45:38.238Z,96.02
2022-09-15T16:48:43.884Z,95.75
2022-09-15T16:51:45.720Z,95.20
2022-09-15T16:54:47.411Z,95.47
2022-09-15T16:57:51.525Z,95.07
2022-09-15T17:00:53.738Z,94.86
2022-09-15T17:03:55.901Z,95.21
2022-09-15T17:06:57.654Z,95.31
2022-09-15T17:09:59.316Z,94.83
2022-09-15T17:13:01.835Z,95.22
2022-09-15T17:16:03.892Z,94.40
2022-09-15T17:19:05.524Z,93.46
2022-09-15T17:22:08.590Z,93.96
2022-09-15T17:25:24.066Z,94.29
2022-09-15T17:28:31.256Z,94.04
2022-09-15T17:31:33.079Z,94.59
2022-09-15T17:34:34.959Z,94.91
2022-09-15T17:37:36.802Z,94.97
2022-09-15T17:40:38.631Z,95.58
2022-09-15T17:43:40.389Z,96.29
2022-09-15T17:46:42.070Z,97.28
2022-09-15T17:49:43.840Z,97.33
2022-09-15T17:52:46.398Z,97.81
2022-09-15T17:55:49.470Z,98.44
2022-09-15T17:58:51.442Z,98.62
2022-09-15T18:01:53.167Z,99.46
2022-09-15T18:04:54.832Z,100.00
2022-09-15T18:07:59.165Z,99.96
2022-09-15T18:11:00.889Z,99.80
2022-09-15T18:14:02.556Z,99.49
2022-09-15T18:17:04.250Z,99.32
2022-09-15T18:20:06.581Z,98.99
2022-09-15T18:23:12.951Z,98.75
2022-09-15T18:26:14.555Z,97.79
2022-09-15T18:29:16.207Z,98.10
2022-09-15T18:32:17.870Z,97.70
2022-09-15T18:35:20.876Z,97.67
2022-09-15T18:38:23.563Z,97.37
2022-09-15T18:41:25.242Z,97.17
2022-09-15T18:44:29.182Z,97.64
2022-09-15T18:47:31.181Z,97.50
2022-09-15T18:50:32.916Z,97.35
2022-09-15T18:53:38.583Z,96.84
2022-09-15T18:56:40.197Z,97.06
2022-09-15T18:59:41.960Z,97.77
2022-09-15T19:02:44.541Z,97.45
2022-09-15T19:05:46.255Z,97.45
2022-09-15T19:08:47.937Z,98.09
2022-09-15T19:11:49.488Z,97.98
2022-09-15T19:14:51.105Z,98.03
2022-09-15T19:17:52.925Z,97.95
2022-09-15T19:20:54.544Z,97.41
2022-09-15T19:23:58.658Z,97.43
2022-09-15T19:27:01.541Z,97.56
2022-09-15T19:30:03.991Z,97.79
2022-09-15T19:33:05.606Z,97.88
2022-09-15T19:36:27.512Z,98.29
2022-09-15T19:39:29.842Z,98.50
2022-09-15T19:42:31.446Z,98.42
2022-09-15T19:45:33.980Z,98.33
2022-09-15T19:48:38.639Z,98.77
2022-09-15T19:51:43.142Z,99.08
2022-09-15T19:54:44.779Z,99.19
2022-09-15T19:57:46.798Z,99.25
2022-09-15T20:00:55.322Z,99.83
2022-09-15T20:03:57.314Z,99.70
2022-09-15T20:06:59.002Z,99.46
2022-09-15T20:10:01.028Z,99.68
2022-09-15T20:13:03.108Z,99.14
2022-09-15T20:16:06.003Z,99.65
2022-09-15T20:19:07.940Z,99.64
2022-09-15T20:22:10.448Z,99.77
2022-09-15T20:25:12.141Z,100.00
2022-09-15T20:28:13.780Z,100.00
2022-09-15T20:31:18.287Z,100.00
2022-09-15T20:34:19.966Z,100.00
2022-09-15T20:37:23.047Z,100.00
2022-09-15T20:40:26.364Z,100.00
2022-09-15T20:43:28.093Z,100.00
2022-09-15T20:46:31.394Z,100.00
2022-09-15T20:49:33.096Z,100.00
2022-09-15T20:52:38.426Z,100.00
2022-09-15T20:55:40.275Z,100.00
2022-09-15T20:58:42.966Z,100.00
2022-09-15T21:01:44.651Z,100.00
2022-09-15T21:04:46.912Z,100.00
2022-09-15T21:07:48.532Z,100.00
2022-09-15T21:10:50.133Z,100.00
2022-09-15T21:13:52.493Z,100.00
2022-09-15T21:16:54.219Z,100.00
2022-09-15T21:19:55.889Z,100.00
2022-09-15T21:22:57.730Z,100.00
2022-09-15T21:26:06.381Z,100.00
2022-09-15T21:29:08.333Z,100.00
2022-09-15T21:32:10.034Z,100.00
2022-09-15T21:35:11.831Z,100.00
2022-09-15T21:38:13.615Z,100.00
2022-09-15T21:41:17.420Z,100.00
2022-09-15T21:44:19.024Z,100.00
2022-09-15T21:47:20.592Z,100.00
2022-09-15T21:50:22.222Z,100.00
2022-09-15T21:53:24.329Z,100.00
2022-09-15T21:56:27.629Z,100.00
2022-09-15T21:59:29.314Z,100.00
2022-09-15T22:02:31.239Z,100.00
2022-09-15T22:05:33.238Z,100.00
2022-09-15T22:08:34.901Z,100.00
2022-09-15T22:11:37.093Z,100.00
2022-09-15T22:14:38.735Z,100.00
2022-09-15T22:17:40.404Z,100.00
2022-09-15T22:20:41.990Z,100.00
2022-09-15T22:23:44.810Z,100.00
2022-09-15T22:26:46.405Z,100.00
2022-09-15T22:29:47.980Z,100.00
2022-09-15T22:32:49.950Z,100.00
2022-09-15T22:35:52.445Z,100.00
2022-09-15T22:38:54.435Z,100.00
2022-09-15T22:41:56.232Z,100.00
2022-09-15T22:44:57.941Z,100.00
2022-09-15T22:47:59.593Z,100.00
2022-09-15T22:51:02.561Z,100.00
2022-09-15T22:54:04.285Z,100.00
2022-09-15T22:57:05.916Z,100.00
2022-09-15T23:00:08.478Z,100.00
2022-09-15T23:03:10.912Z,100.00
2022-09-15T23:06:12.497Z,100.00
2022-09-15T23:09:14.079Z,100.00
2022-09-15T23:12:16.010Z,100.00
2022-09-15T23:15:17.785Z,100.00
2022-09-15T23:18:19.440Z,100.00
2022-09-15T23:21:21.336Z,100.00
2022-09-15T23:24:23.052Z,100.00
2022-09-15T23:27:24.674Z,100.00
2022-09-15T23:30:26.351Z,100.00
2022-09-15T23:33:31.582Z,100.00
2022-09-15T23:36:33.229Z,100.00
2022-09-15T23:39:34.856Z,100.00
2022-09-15T23:42:37.258Z,100.00
2022-09-15T23:45:38.921Z,100.00
2022-09-15T23:48:40.678Z,100.00
2022-09-15T23:51:42.257Z,100.00
2022-09-15T23:54:43.916Z,100.00
2022-09-15T23:57:45.554Z,100.00
